Time;durP1;ratioP1;P1;durP2;ratioP2;P2;SDS_P1;SDS_P2;PMS_P1;PMS_P2;Temp;Humidity;BMP_temperature;BMP_pressure;BME280_temperature;BME280_humidity;BME280_pressure;Samples;Min_cycle;Max_cycle;Signal;HPM_P1;HPM_P2
2021/07/12 00:00:34;;;;;;;1.83;1.73;;;15.00;99.90;;;;;;5053471;28;20200;-69
2021/07/12 00:03:01;;;;;;;2.30;2.10;;;15.00;99.90;;;;;;5053923;28;20180;-68
2021/07/12 00:05:28;;;;;;;2.63;2.43;;;15.00;99.90;;;;;;5053956;28;20435;-69
2021/07/12 00:07:57;;;;;;;2.70;2.50;;;14.90;99.90;;;;;;5053516;28;20451;-69
2021/07/12 00:10:33;;;;;;;2.80;2.20;;;14.90;99.90;;;;;;5053940;28;20769;-69
2021/07/12 00:12:58;;;;;;;2.33;2.10;;;14.80;99.90;;;;;;5054001;28;20414;-69
2021/07/12 00:15:31;;;;;;;2.73;2.53;;;14.80;99.90;;;;;;5053071;28;20422;-69
2021/07/12 00:17:59;;;;;;;2.70;2.40;;;14.80;99.90;;;;;;5053285;28;20705;-69
2021/07/12 00:20:26;;;;;;;2.83;2.63;;;14.80;99.90;;;;;;5052179;28;20450;-69
2021/07/12 00:22:58;;;;;;;2.10;2.00;;;14.70;99.90;;;;;;5052606;28;20790;-69
2021/07/12 00:25:25;;;;;;;2.80;2.57;;;14.70;99.90;;;;;;5053642;28;20399;-68
2021/07/12 00:27:54;;;;;;;2.53;2.40;;;14.60;99.90;;;;;;5053063;28;20466;-69
2021/07/12 00:30:24;;;;;;;3.00;2.80;;;14.60;99.90;;;;;;5052700;28;20457;-69
2021/07/12 00:32:53;;;;;;;2.80;2.60;;;14.50;99.90;;;;;;5053505;28;20423;-69
2021/07/12 00:35:19;;;;;;;2.07;1.97;;;14.50;99.90;;;;;;5051940;28;20433;-69
2021/07/12 00:37:49;;;;;;;4.03;3.53;;;14.50;99.90;;;;;;5052757;28;20416;-69
2021/07/12 00:40:25;;;;;;;2.93;2.60;;;14.40;99.90;;;;;;5053173;28;20453;-69
2021/07/12 00:42:52;;;;;;;1.83;1.73;;;14.50;99.90;;;;;;5053779;28;20418;-69
2021/07/12 00:45:28;;;;;;;2.40;2.20;;;14.40;99.90;;;;;;5044404;28;20425;-69
2021/07/12 00:47:55;;;;;;;3.37;2.83;;;14.40;99.90;;;;;;5052168;28;20541;-69
2021/07/12 00:50:28;;;;;;;3.10;2.87;;;14.40;99.90;;;;;;5053187;28;20502;-69
2021/07/12 00:52:55;;;;;;;4.60;2.50;;;14.40;99.90;;;;;;5053208;28;20427;-69
2021/07/12 00:55:40;;;;;;;2.07;1.97;;;14.40;99.90;;;;;;5053166;28;20470;-69
2021/07/12 00:58:11;;;;;;;5.33;2.67;;;14.40;99.90;;;;;;5052666;28;20426;-69
2021/07/12 01:00:39;;;;;;;2.83;2.40;;;14.40;99.90;;;;;;5052756;28;20453;-68
2021/07/12 01:03:06;;;;;;;2.50;2.30;;;14.40;99.90;;;;;;5053033;28;20407;-69
2021/07/12 01:05:32;;;;;;;2.37;2.17;;;14.40;99.90;;;;;;5053410;28;20407;-69
2021/07/12 01:08:04;;;;;;;2.27;2.10;;;14.40;99.90;;;;;;5052599;28;20949;-69
2021/07/12 01:10:31;;;;;;;2.70;2.17;;;14.40;99.90;;;;;;5051692;28;20489;-69
2021/07/12 01:13:17;;;;;;;4.03;1.87;;;14.40;99.90;;;;;;5053500;28;20406;-69
2021/07/12 01:16:15;;;;;;;2.27;2.07;;;14.30;99.90;;;;;;5052998;28;20438;-69
2021/07/12 01:19:18;;;;;;;2.93;2.70;;;14.30;99.90;;;;;;5052086;28;20434;-68
2021/07/12 01:22:23;;;;;;;2.53;2.43;;;14.20;99.90;;;;;;5051773;28;20765;-69
2021/07/12 01:25:26;;;;;;;2.63;2.43;;;14.20;99.90;;;;;;5053286;28;20425;-69
2021/07/12 01:28:16;;;;;;;3.50;2.50;;;14.20;99.90;;;;;;5052702;28;20493;-69
2021/07/12 01:31:10;;;;;;;3.40;2.73;;;14.20;99.90;;;;;;5033028;28;20455;-69
2021/07/12 01:33:45;;;;;;;2.63;2.50;;;14.20;99.90;;;;;;5033212;28;20378;-69
2021/07/12 01:36:19;;;;;;;2.97;2.73;;;14.20;99.90;;;;;;5033436;28;20431;-69
2021/07/12 01:38:55;;;;;;;4.60;3.40;;;14.20;99.90;;;;;;5032604;28;20395;-69
2021/07/12 01:41:33;;;;;;;3.03;2.77;;;14.20;99.90;;;;;;5033491;28;20482;-68
2021/07/12 01:44:10;;;;;;;2.57;2.37;;;14.20;99.90;;;;;;5035286;28;20411;-69
2021/07/12 01:46:56;;;;;;;2.10;2.00;;;14.10;99.90;;;;;;5036862;28;20408;-69
2021/07/12 01:49:30;;;;;;;4.63;3.03;;;14.10;99.90;;;;;;5037283;28;20468;-69
2021/07/12 01:52:18;;;;;;;2.97;2.37;;;14.10;99.90;;;;;;5038197;28;20423;-67
2021/07/12 01:55:01;;;;;;;2.80;2.60;;;14.10;99.90;;;;;;5045797;28;20441;-68
2021/07/12 01:57:32;;;;;;;2.57;2.37;;;14.10;99.90;;;;;;5036487;28;20467;-69
2021/07/12 02:00:08;;;;;;;2.57;2.37;;;14.10;99.90;;;;;;5036821;28;20431;-68
2021/07/12 02:02:34;;;;;;;2.83;2.07;;;14.10;99.90;;;;;;5036628;28;20406;-69
2021/07/12 02:05:04;;;;;;;2.40;2.20;;;14.10;99.90;;;;;;5036226;28;20481;-69
2021/07/12 02:07:33;;;;;;;3.67;3.23;;;14.00;99.90;;;;;;5036079;28;20453;-69
2021/07/12 02:10:01;;;;;;;5.80;2.30;;;14.00;99.90;;;;;;5036462;28;20510;-69
2021/07/12 02:12:28;;;;;;;2.57;2.20;;;14.00;99.90;;;;;;5036470;28;20407;-69
2021/07/12 02:14:56;;;;;;;2.10;2.00;;;14.00;99.90;;;;;;5035079;28;20414;-69
2021/07/12 02:17:22;;;;;;;2.60;2.40;;;14.00;99.90;;;;;;5049448;28;20423;-69
2021/07/12 02:19:50;;;;;;;2.80;2.60;;;13.90;99.90;;;;;;5055654;28;20448;-69
2021/07/12 02:22:16;;;;;;;3.73;2.60;;;14.00;99.90;;;;;;5056174;28;20417;-68
2021/07/12 02:24:44;;;;;;;2.23;2.03;;;14.00;99.90;;;;;;5054749;28;20427;-68
2021/07/12 02:27:10;;;;;;;2.73;2.47;;;14.10;99.90;;;;;;5055580;28;20410;-68
2021/07/12 02:29:37;;;;;;;7.20;2.73;;;14.00;99.90;;;;;;5055862;28;20937;-68
2021/07/12 02:32:04;;;;;;;2.93;2.73;;;14.00;99.90;;;;;;5042250;28;20547;-68
2021/07/12 02:34:30;;;;;;;2.87;2.60;;;14.00;99.90;;;;;;5035803;28;20816;-68
2021/07/12 02:36:57;;;;;;;2.10;1.77;;;14.10;99.90;;;;;;5035812;28;20396;-68
2021/07/12 02:39:24;;;;;;;2.97;2.77;;;14.00;99.90;;;;;;5035253;28;20467;-68
2021/07/12 02:41:51;;;;;;;2.37;2.27;;;13.90;99.90;;;;;;5035654;28;20512;-68
2021/07/12 02:44:19;;;;;;;2.70;2.50;;;14.00;99.90;;;;;;5035754;28;20419;-68
2021/07/12 02:46:44;;;;;;;3.73;2.70;;;14.00;99.90;;;;;;5047161;28;20448;-68
2021/07/12 02:49:11;;;;;;;3.50;2.50;;;14.00;99.90;;;;;;5055077;28;20509;-68
2021/07/12 02:51:47;;;;;;;3.07;2.80;;;14.00;99.90;;;;;;5055514;28;20203;-68
2021/07/12 02:54:18;;;;;;;2.63;2.40;;;14.00;99.90;;;;;;5053773;28;20415;-68
2021/07/12 02:56:45;;;;;;;2.23;2.07;;;14.00;99.90;;;;;;5055355;28;20791;-68
2021/07/12 02:59:10;;;;;;;2.83;2.40;;;14.00;99.90;;;;;;5054859;28;20396;-69
2021/07/12 03:01:36;;;;;;;2.47;2.27;;;14.00;99.90;;;;;;5046010;28;20435;-69
2021/07/12 03:04:02;;;;;;;2.23;2.13;;;13.90;99.90;;;;;;5035315;28;20181;-69
2021/07/12 03:06:30;;;;;;;2.30;2.10;;;13.90;99.90;;;;;;5035309;28;20172;-69
2021/07/12 03:09:07;;;;;;;2.50;2.27;;;13.90;99.90;;;;;;5034721;28;20232;-68
2021/07/12 03:12:00;;;;;;;2.87;2.50;;;13.90;99.90;;;;;;5035329;28;20407;-69
2021/07/12 03:14:35;;;;;;;1.93;1.83;;;13.90;99.90;;;;;;5034788;28;20418;-69
2021/07/12 03:17:02;;;;;;;4.53;3.10;;;13.80;99.90;;;;;;5053887;28;20950;-69
2021/07/12 03:19:31;;;;;;;3.63;3.10;;;13.90;99.90;;;;;;5054734;28;20434;-69
2021/07/12 03:21:59;;;;;;;2.73;2.53;;;13.90;99.90;;;;;;5055027;28;20405;-69
2021/07/12 03:24:28;;;;;;;2.87;2.60;;;13.80;99.90;;;;;;5054795;28;20417;-69
2021/07/12 03:26:54;;;;;;;2.70;2.50;;;13.80;99.90;;;;;;5053591;28;20408;-69
2021/07/12 03:29:22;;;;;;;2.60;2.40;;;13.80;99.90;;;;;;5054395;28;20467;-69
2021/07/12 03:31:48;;;;;;;2.63;2.43;;;13.70;99.90;;;;;;5035352;28;20430;-68
2021/07/12 03:34:16;;;;;;;2.30;2.20;;;13.80;99.90;;;;;;5034466;28;20823;-69
2021/07/12 03:36:45;;;;;;;2.50;2.40;;;13.80;99.90;;;;;;5034489;28;20398;-68
2021/07/12 03:39:10;;;;;;;2.20;2.10;;;13.80;99.90;;;;;;5034177;28;20427;-69
2021/07/12 03:41:37;;;;;;;2.53;2.33;;;13.80;99.90;;;;;;5034797;28;20421;-69
2021/07/12 03:44:05;;;;;;;2.70;2.50;;;13.70;99.90;;;;;;5034410;28;20940;-69
2021/07/12 03:46:31;;;;;;;3.67;2.10;;;13.70;99.90;;;;;;5052095;28;20433;-68
2021/07/12 03:48:57;;;;;;;1.93;1.83;;;13.80;99.90;;;;;;5053811;28;20462;-69
2021/07/12 03:51:25;;;;;;;2.47;2.27;;;13.70;99.90;;;;;;5054332;28;20172;-69
2021/07/12 03:53:51;;;;;;;6.60;2.60;;;13.70;99.90;;;;;;5054186;28;20409;-69
2021/07/12 03:56:17;;;;;;;3.10;2.80;;;13.70;99.90;;;;;;5054167;28;20401;-69
2021/07/12 03:58:43;;;;;;;2.80;2.60;;;13.70;99.90;;;;;;5053832;28;20413;-69
2021/07/12 04:01:22;;;;;;;2.83;2.47;;;13.70;99.90;;;;;;5035705;28;20428;-69
2021/07/12 04:03:53;;;;;;;2.60;2.40;;;13.70;99.90;;;;;;5034436;28;20465;-69
2021/07/12 04:06:19;;;;;;;2.60;1.93;;;13.80;99.90;;;;;;5033602;28;20872;-69
2021/07/12 04:08:45;;;;;;;3.03;2.83;;;13.80;99.90;;;;;;5033737;28;20549;-69
2021/07/12 04:11:12;;;;;;;1.93;1.80;;;13.80;99.90;;;;;;5034006;28;20474;-69
2021/07/12 04:13:39;;;;;;;3.60;2.30;;;13.80;99.90;;;;;;5033848;28;20176;-69
2021/07/12 04:16:05;;;;;;;3.07;2.80;;;13.80;99.90;;;;;;5033098;28;20484;-69
2021/07/12 04:18:31;;;;;;;3.20;2.90;;;13.90;99.90;;;;;;5033461;28;20411;-69
2021/07/12 04:20:57;;;;;;;2.80;2.60;;;13.90;99.90;;;;;;5033888;28;20404;-69
2021/07/12 04:23:23;;;;;;;3.20;2.90;;;14.00;99.90;;;;;;5034029;28;20486;-69
2021/07/12 04:25:49;;;;;;;2.90;2.70;;;14.00;99.90;;;;;;5034708;28;21035;-69
2021/07/12 04:28:14;;;;;;;2.80;2.60;;;14.10;99.90;;;;;;5038739;28;20231;-69
2021/07/12 04:30:40;;;;;;;3.53;3.07;;;14.40;99.90;;;;;;5033281;28;20667;-68
2021/07/12 04:33:06;;;;;;;2.50;2.30;;;14.60;99.90;;;;;;5032448;28;20173;-69
2021/07/12 04:35:32;;;;;;;2.60;2.50;;;15.00;99.90;;;;;;5033936;28;20174;-69
2021/07/12 04:37:57;;;;;;;2.70;2.50;;;15.20;99.90;;;;;;5051439;28;20324;-68
2021/07/12 04:40:23;;;;;;;2.30;2.20;;;15.50;99.90;;;;;;5053342;28;20526;-69
2021/07/12 04:42:49;;;;;;;2.83;2.63;;;15.80;99.90;;;;;;5053467;28;20169;-68
2021/07/12 04:45:15;;;;;;;2.77;2.57;;;15.90;99.90;;;;;;5051447;28;20409;-69
2021/07/12 04:47:40;;;;;;;1.97;1.87;;;16.00;99.90;;;;;;5051174;28;20206;-69
2021/07/12 04:50:08;;;;;;;4.03;3.00;;;16.10;99.90;;;;;;5052096;28;20189;-69
2021/07/12 04:52:34;;;;;;;2.13;2.03;;;16.00;99.90;;;;;;5052516;28;20170;-69
2021/07/12 04:55:01;;;;;;;5.30;3.13;;;16.00;99.90;;;;;;5052934;28;20434;-69
2021/07/12 04:57:27;;;;;;;1.93;1.77;;;16.00;99.90;;;;;;5052392;28;21184;-69
2021/07/12 04:59:53;;;;;;;2.90;2.57;;;16.10;99.90;;;;;;5052864;28;20420;-69
2021/07/12 05:02:19;;;;;;;1.90;1.80;;;16.10;99.90;;;;;;5053632;28;20173;-69
2021/07/12 05:04:44;;;;;;;3.33;3.03;;;16.10;99.90;;;;;;5053434;28;20177;-69
2021/07/12 05:07:11;;;;;;;3.20;2.30;;;16.20;99.90;;;;;;5036294;28;20923;-70
2021/07/12 05:09:37;;;;;;;2.80;2.20;;;16.40;99.90;;;;;;5033213;28;20201;-69
2021/07/12 05:12:08;;;;;;;2.30;2.10;;;16.50;99.90;;;;;;5033589;28;20756;-69
2021/07/12 05:14:35;;;;;;;2.40;2.20;;;16.70;99.90;;;;;;5033071;28;20894;-69
2021/07/12 05:17:01;;;;;;;2.33;2.23;;;16.90;99.90;;;;;;5035096;28;20471;-69
2021/07/12 05:19:26;;;;;;;2.57;1.77;;;17.00;99.90;;;;;;5036877;28;20417;-69
2021/07/12 05:21:52;;;;;;;2.20;2.00;;;17.10;99.90;;;;;;5037181;28;20183;-69
2021/07/12 05:24:18;;;;;;;3.10;2.57;;;17.20;99.90;;;;;;5036913;28;20666;-69
2021/07/12 05:26:43;;;;;;;2.53;2.37;;;17.40;99.90;;;;;;5045177;28;20206;-69
2021/07/12 05:29:09;;;;;;;2.30;2.10;;;17.40;99.90;;;;;;5056092;28;20202;-69
2021/07/12 05:31:34;;;;;;;2.43;2.10;;;17.60;99.90;;;;;;5057034;28;20522;-69
2021/07/12 05:34:00;;;;;;;2.30;2.10;;;17.80;99.90;;;;;;5057119;28;20174;-69
2021/07/12 05:36:26;;;;;;;3.93;2.10;;;17.90;99.90;;;;;;5057079;28;20173;-69
2021/07/12 05:38:51;;;;;;;2.13;2.03;;;17.90;99.90;;;;;;5056514;28;20613;-66
2021/07/12 05:41:17;;;;;;;1.73;1.60;;;18.10;99.90;;;;;;5056622;28;20180;-66
2021/07/12 05:43:42;;;;;;;2.33;1.70;;;18.40;99.90;;;;;;5056708;28;20176;-66
2021/07/12 05:46:08;;;;;;;2.23;1.57;;;18.60;99.90;;;;;;5056903;28;20249;-66
2021/07/12 05:48:34;;;;;;;2.03;1.83;;;18.80;99.90;;;;;;5056395;28;20201;-66
2021/07/12 05:51:00;;;;;;;2.13;1.80;;;18.90;99.90;;;;;;5056820;28;20253;-66
2021/07/12 05:53:26;;;;;;;1.87;1.77;;;19.10;99.90;;;;;;5056819;28;20173;-66
2021/07/12 05:55:52;;;;;;;2.33;2.00;;;19.10;99.90;;;;;;5051966;28;20905;-65
2021/07/12 05:58:17;;;;;;;1.70;1.60;;;19.20;99.90;;;;;;5056286;28;20421;-66
2021/07/12 06:00:43;;;;;;;3.37;2.10;;;19.40;99.90;;;;;;5056389;28;20525;-66
2021/07/12 06:03:09;;;;;;;2.00;1.80;;;19.70;99.90;;;;;;5055582;28;20644;-66
2021/07/12 06:05:35;;;;;;;1.60;1.50;;;20.00;99.90;;;;;;5056754;28;20223;-66
2021/07/12 06:08:01;;;;;;;2.17;2.07;;;20.10;99.90;;;;;;5056023;28;20872;-66
2021/07/12 06:10:27;;;;;;;1.50;1.40;;;20.00;99.90;;;;;;5055975;28;20497;-66
2021/07/12 06:12:52;;;;;;;1.70;1.60;;;20.00;99.90;;;;;;5056111;28;20897;-67
2021/07/12 06:15:18;;;;;;;2.13;1.93;;;20.10;99.90;;;;;;5056445;28;20169;-67
2021/07/12 06:17:45;;;;;;;1.63;1.53;;;20.10;99.90;;;;;;5056098;28;20185;-67
2021/07/12 06:20:14;;;;;;;2.10;1.90;;;20.30;99.90;;;;;;5056312;28;20593;-66
2021/07/12 06:22:39;;;;;;;1.63;1.53;;;20.30;99.90;;;;;;5056101;28;20416;-66
2021/07/12 06:25:05;;;;;;;2.53;2.33;;;20.40;99.90;;;;;;5052878;28;20913;-68
2021/07/12 06:27:31;;;;;;;1.90;1.80;;;20.50;99.90;;;;;;5035526;28;20181;-65
2021/07/12 06:29:57;;;;;;;1.50;1.40;;;20.60;99.90;;;;;;5035635;28;20425;-65
2021/07/12 06:32:22;;;;;;;2.33;1.87;;;20.70;99.90;;;;;;5045383;28;20546;-65
2021/07/12 06:34:48;;;;;;;2.47;2.27;;;20.80;99.90;;;;;;5042784;28;20182;-66
2021/07/12 06:37:13;;;;;;;1.80;1.70;;;20.80;99.90;;;;;;5035539;28;20222;-65
2021/07/12 06:39:39;;;;;;;1.63;1.53;;;20.80;99.90;;;;;;5049690;28;20201;-66
2021/07/12 06:42:05;;;;;;;3.03;1.90;;;20.90;99.90;;;;;;5055113;28;20177;-67
2021/07/12 06:44:31;;;;;;;1.77;1.67;;;20.90;99.90;;;;;;5054278;28;20404;-66
2021/07/12 06:46:56;;;;;;;3.67;3.47;;;21.00;99.90;;;;;;5054897;28;20177;-66
2021/07/12 06:49:22;;;;;;;1.80;1.70;;;21.10;99.90;;;;;;5054934;28;20632;-66
2021/07/12 06:51:49;;;;;;;2.13;1.97;;;21.20;99.90;;;;;;5055469;28;20269;-67
2021/07/12 06:54:15;;;;;;;2.27;1.73;;;21.30;99.90;;;;;;5047359;28;20191;-67
2021/07/12 06:56:41;;;;;;;1.60;1.50;;;21.40;99.90;;;;;;5035402;28;20769;-67
2021/07/12 06:59:07;;;;;;;1.70;1.50;;;21.70;99.90;;;;;;5034786;28;20539;-68
2021/07/12 07:01:33;;;;;;;1.60;1.50;;;21.90;99.90;;;;;;5035265;28;20185;-68
2021/07/12 07:03:58;;;;;;;1.27;1.17;;;22.20;99.90;;;;;;5035276;28;20166;-67
2021/07/12 07:06:24;;;;;;;1.73;1.37;;;22.40;99.90;;;;;;5035044;28;20387;-68
2021/07/12 07:08:50;;;;;;;2.43;1.40;;;22.60;99.90;;;;;;5040341;28;20616;-68
2021/07/12 07:11:16;;;;;;;1.50;1.40;;;22.80;99.90;;;;;;5054938;28;20204;-69
2021/07/12 07:13:41;;;;;;;1.93;1.30;;;23.10;99.90;;;;;;5055150;28;20180;-69
2021/07/12 07:16:07;;;;;;;1.83;1.73;;;23.20;99.90;;;;;;5055084;28;20177;-68
2021/07/12 07:18:33;;;;;;;2.23;1.60;;;23.20;99.90;;;;;;5037626;28;20607;-69
2021/07/12 07:20:59;;;;;;;1.57;1.47;;;23.20;99.90;;;;;;5035047;28;20365;-69
2021/07/12 07:23:25;;;;;;;2.80;1.50;;;23.20;99.90;;;;;;5034949;28;20515;-67
2021/07/12 07:25:51;;;;;;;1.60;1.50;;;23.30;99.90;;;;;;5035265;28;20178;-66
2021/07/12 07:28:18;;;;;;;1.40;1.30;;;23.50;99.90;;;;;;5034445;28;20435;-66
2021/07/12 07:30:45;;;;;;;1.47;1.37;;;23.60;99.90;;;;;;5035171;28;20463;-65
2021/07/12 07:33:10;;;;;;;4.13;1.87;;;23.80;99.90;;;;;;5050903;28;20420;-66
2021/07/12 07:35:39;;;;;;;1.50;1.40;;;24.10;99.90;;;;;;5054463;28;20382;-66
2021/07/12 07:38:05;;;;;;;1.47;1.37;;;24.60;99.90;;;;;;5053975;28;20757;-67
2021/07/12 07:40:31;;;;;;;1.70;1.60;;;24.90;99.90;;;;;;5053208;28;20433;-66
2021/07/12 07:42:56;;;;;;;2.90;1.60;;;25.40;99.90;;;;;;5054576;28;20184;-66
2021/07/12 07:45:22;;;;;;;2.37;1.40;;;25.80;99.60;;;;;;5054307;28;20408;-66
2021/07/12 07:47:48;;;;;;;1.33;1.23;;;26.30;98.80;;;;;;5038991;28;20229;-68
2021/07/12 07:50:15;;;;;;;1.70;1.60;;;26.70;97.30;;;;;;5034533;28;20249;-69
2021/07/12 07:52:41;;;;;;;1.60;1.50;;;27.10;96.70;;;;;;5039668;28;20526;-67
2021/07/12 07:55:12;;;;;;;1.73;1.63;;;27.70;95.50;;;;;;5054394;28;20375;-67
2021/07/12 07:57:41;;;;;;;1.20;1.20;;;28.10;94.70;;;;;;5053575;28;20652;-70
2021/07/12 08:00:13;;;;;;;1.60;1.50;;;28.70;93.70;;;;;;5053847;28;20432;-68
2021/07/12 08:02:40;;;;;;;1.87;1.70;;;29.20;92.00;;;;;;5038291;28;20417;-67
2021/07/12 08:05:06;;;;;;;1.53;1.43;;;29.40;91.10;;;;;;5034061;28;20430;-68
2021/07/12 08:07:33;;;;;;;4.13;1.80;;;29.70;91.60;;;;;;5033850;28;20420;-68
2021/07/12 08:09:59;;;;;;;1.40;1.30;;;30.30;90.20;;;;;;5033979;28;20399;-68
2021/07/12 08:12:25;;;;;;;2.20;1.83;;;30.70;90.00;;;;;;5044593;28;20419;-68
2021/07/12 08:14:50;;;;;;;1.97;1.77;;;31.40;86.10;;;;;;5053648;28;20192;-68
2021/07/12 08:17:16;;;;;;;1.60;1.50;;;31.70;85.80;;;;;;5039159;28;20186;-67
2021/07/12 08:19:42;;;;;;;1.93;1.27;;;32.10;83.70;;;;;;5033792;28;20248;-67
2021/07/12 08:22:07;;;;;;;1.90;1.10;;;32.40;79.40;;;;;;5033728;28;20185;-67
2021/07/12 08:24:34;;;;;;;1.47;1.47;;;32.20;79.10;;;;;;5033789;28;20261;-70
2021/07/12 08:27:01;;;;;;;1.13;1.10;;;32.20;79.90;;;;;;5033815;28;20202;-64
2021/07/12 08:29:27;;;;;;;1.20;1.10;;;32.40;78.10;;;;;;5033315;28;20534;-67
2021/07/12 08:31:53;;;;;;;1.07;1.07;;;32.50;77.50;;;;;;5036462;28;20424;-67
2021/07/12 08:34:19;;;;;;;1.53;1.43;;;32.90;76.30;;;;;;5033721;28;20501;-65
2021/07/12 08:36:45;;;;;;;1.23;1.13;;;33.40;76.20;;;;;;5033756;28;20265;-65
2021/07/12 08:39:12;;;;;;;1.37;1.30;;;34.00;73.70;;;;;;5033238;28;20535;-65
2021/07/12 08:41:38;;;;;;;1.40;1.30;;;34.30;71.70;;;;;;5033910;28;20549;-65
2021/07/12 08:44:06;;;;;;;1.00;1.00;;;34.60;70.40;;;;;;5051828;28;20431;-67
2021/07/12 08:46:32;;;;;;;1.50;1.40;;;34.90;69.50;;;;;;5053497;28;20174;-67
2021/07/12 08:48:58;;;;;;;1.40;1.40;;;34.50;68.40;;;;;;5052643;28;20822;-66
2021/07/12 08:51:23;;;;;;;4.33;1.60;;;34.00;69.40;;;;;;5053318;28;20465;-67
2021/07/12 08:53:49;;;;;;;1.67;1.30;;;33.50;70.30;;;;;;5053350;28;20166;-66
2021/07/12 08:56:15;;;;;;;1.47;1.37;;;33.00;70.80;;;;;;5053397;28;20166;-67
2021/07/12 08:58:41;;;;;;;1.57;1.47;;;33.00;71.60;;;;;;5052300;28;20255;-67
2021/07/12 09:01:09;;;;;;;1.67;1.57;;;33.00;71.90;;;;;;5049970;28;20177;-66
2021/07/12 09:03:41;;;;;;;1.63;1.53;;;32.80;72.90;;;;;;5054202;28;20181;-67
2021/07/12 09:06:15;;;;;;;1.50;1.40;;;32.90;70.50;;;;;;5052614;28;20780;-67
2021/07/12 09:08:51;;;;;;;1.37;1.27;;;32.90;71.90;;;;;;5052701;28;20629;-67
2021/07/12 09:11:35;;;;;;;1.40;1.30;;;32.80;71.70;;;;;;5049475;28;20465;-67
2021/07/12 09:14:04;;;;;;;1.67;1.57;;;32.80;71.90;;;;;;5033283;28;20421;-73
2021/07/12 09:16:30;;;;;;;1.80;1.70;;;33.00;70.00;;;;;;5045511;28;20408;-69
2021/07/12 09:19:23;;;;;;;1.30;1.30;;;33.00;70.00;;;;;;5050811;28;20446;-68
2021/07/12 09:22:10;;;;;;;1.50;1.40;;;33.00;71.60;;;;;;5035454;28;20632;-68
2021/07/12 09:24:56;;;;;;;1.27;1.27;;;33.50;69.70;;;;;;5033499;28;20425;-72
2021/07/12 09:27:26;;;;;;;1.60;1.50;;;34.10;67.50;;;;;;5048820;28;20942;-71
2021/07/12 09:29:59;;;;;;;1.23;1.23;;;34.40;65.70;;;;;;5042899;28;20406;-72
2021/07/12 09:32:28;;;;;;;1.53;1.43;;;34.70;65.40;;;;;;5041663;28;20435;-72
2021/07/12 09:35:01;;;;;;;1.10;1.10;;;34.70;65.50;;;;;;5039342;28;20420;-71
2021/07/12 09:37:27;;;;;;;1.87;1.73;;;34.70;62.10;;;;;;5043156;28;21187;-74
2021/07/12 09:39:55;;;;;;;1.40;1.40;;;34.90;63.10;;;;;;5052663;28;20795;-69
2021/07/12 09:42:23;;;;;;;1.60;1.50;;;35.00;61.90;;;;;;5044385;28;20424;-75
2021/07/12 09:45:01;;;;;;;1.83;1.73;;;35.30;62.50;;;;;;5032845;28;20429;-73
2021/07/12 09:47:30;;;;;;;1.67;1.57;;;35.40;62.00;;;;;;5037673;28;20416;-75
2021/07/12 09:50:05;;;;;;;1.90;1.80;;;35.50;60.90;;;;;;5052657;28;21044;-74
2021/07/12 09:53:00;;;;;;;1.27;1.27;;;35.00;60.20;;;;;;5050751;28;20412;-74
2021/07/12 09:55:26;;;;;;;2.57;1.57;;;34.90;61.20;;;;;;5044161;28;20930;-73
2021/07/12 09:58:16;;;;;;;1.40;1.40;;;35.40;61.40;;;;;;5043121;28;20443;-73
2021/07/12 10:01:03;;;;;;;1.63;1.53;;;35.90;60.50;;;;;;5050104;28;20209;-74
2021/07/12 10:03:33;;;;;;;1.97;1.57;;;36.20;58.40;;;;;;5052781;28;20419;-73
2021/07/12 10:06:02;;;;;;;1.57;1.47;;;36.50;58.20;;;;;;5060436;28;20494;-73
2021/07/12 10:08:28;;;;;;;1.30;1.30;;;36.20;57.50;;;;;;5075847;28;20455;-72
2021/07/12 10:10:56;;;;;;;1.60;1.50;;;36.20;58.20;;;;;;5064073;28;20402;-73
2021/07/12 10:13:22;;;;;;;1.63;1.53;;;35.80;56.70;;;;;;5055028;28;20412;-74
2021/07/12 10:15:50;;;;;;;1.80;1.50;;;35.50;57.10;;;;;;5051986;28;20420;-75
2021/07/12 10:18:17;;;;;;;1.67;1.57;;;35.20;58.60;;;;;;5053090;28;20419;-73
2021/07/12 10:20:43;;;;;;;1.50;1.50;;;34.80;59.30;;;;;;5050496;28;20446;-74
2021/07/12 10:23:09;;;;;;;1.70;1.60;;;34.70;60.10;;;;;;5056852;28;20412;-75
2021/07/12 10:25:44;;;;;;;1.60;1.50;;;34.60;60.70;;;;;;5047527;28;20441;-72
2021/07/12 10:28:10;;;;;;;1.73;1.63;;;34.30;59.90;;;;;;5052621;28;20521;-74
2021/07/12 10:30:39;;;;;;;1.60;1.50;;;33.70;59.60;;;;;;5049717;28;20999;-73
2021/07/12 10:33:08;;;;;;;1.77;1.67;;;33.00;61.10;;;;;;5052756;28;20383;-71
2021/07/12 10:35:44;;;;;;;1.60;1.50;;;32.30;65.00;;;;;;5043533;28;20429;-73
2021/07/12 10:38:15;;;;;;;1.93;1.83;;;32.10;65.60;;;;;;5048818;28;20463;-75
2021/07/12 10:40:51;;;;;;;1.50;1.40;;;32.00;64.50;;;;;;5049398;28;20881;-73
2021/07/12 10:43:45;;;;;;;1.20;1.20;;;31.60;65.50;;;;;;5044530;28;20490;-77
2021/07/12 10:46:31;;;;;;;1.80;1.70;;;31.40;66.80;;;;;;5044411;28;20533;-72
2021/07/12 10:49:00;;;;;;;1.67;1.50;;;30.90;68.50;;;;;;5032585;28;20443;-74
2021/07/12 10:51:37;;;;;;;1.30;1.20;;;30.60;69.50;;;;;;5029906;28;20406;-70
2021/07/12 10:54:07;;;;;;;1.87;1.77;;;30.50;69.50;;;;;;5047915;28;20447;-70
2021/07/12 10:56:56;;;;;;;1.33;1.23;;;30.30;68.80;;;;;;5063914;28;20431;-70
2021/07/12 10:59:33;;;;;;;1.07;1.07;;;30.10;69.10;;;;;;5048161;28;20430;-72
2021/07/12 11:02:01;;;;;;;2.13;1.33;;;30.00;67.90;;;;;;5052956;28;20405;-65
2021/07/12 11:04:37;;;;;;;1.40;1.30;;;30.00;68.50;;;;;;5053154;28;20420;-64
2021/07/12 11:07:08;;;;;;;1.50;1.40;;;29.70;68.80;;;;;;5052069;28;20394;-65
2021/07/12 11:09:52;;;;;;;1.47;1.37;;;29.60;69.10;;;;;;5053525;28;20430;-65
2021/07/12 11:12:29;;;;;;;2.00;1.13;;;29.50;69.60;;;;;;5042836;28;20399;-65
2021/07/12 11:15:14;;;;;;;1.50;1.40;;;29.30;69.80;;;;;;5042845;28;20873;-66
2021/07/12 11:18:01;;;;;;;2.00;1.60;;;29.20;71.90;;;;;;5040454;28;20399;-66
2021/07/12 11:20:48;;;;;;;1.37;1.30;;;29.10;72.00;;;;;;5043248;28;20970;-65
2021/07/12 11:23:35;;;;;;;2.93;1.87;;;29.00;71.60;;;;;;5042417;28;20407;-65
2021/07/12 11:26:02;;;;;;;1.23;1.20;;;29.00;71.20;;;;;;5043902;28;20415;-67
2021/07/12 11:28:49;;;;;;;1.60;1.37;;;28.80;71.90;;;;;;5040680;28;20455;-67
2021/07/12 11:31:54;;;;;;;1.40;1.30;;;28.70;73.40;;;;;;5042649;28;20847;-66
2021/07/12 11:34:24;;;;;;;1.83;1.73;;;28.60;75.00;;;;;;5046677;28;20415;-65
2021/07/12 11:36:59;;;;;;;1.93;1.77;;;28.40;73.60;;;;;;5040474;28;20513;-65
2021/07/12 11:39:28;;;;;;;1.53;1.43;;;28.50;74.10;;;;;;5044215;28;20440;-65
2021/07/12 11:41:54;;;;;;;1.50;1.40;;;28.70;72.90;;;;;;5044037;28;20881;-65
2021/07/12 11:44:21;;;;;;;1.93;1.83;;;28.80;72.20;;;;;;5044642;28;20387;-66
2021/07/12 11:46:49;;;;;;;1.27;1.20;;;28.70;73.90;;;;;;5046422;28;20497;-65
2021/07/12 11:49:17;;;;;;;1.60;1.50;;;28.60;72.10;;;;;;5033735;28;20547;-64
2021/07/12 11:51:44;;;;;;;1.30;1.30;;;28.50;71.70;;;;;;5046304;28;20382;-66
2021/07/12 11:54:16;;;;;;;1.40;1.30;;;28.40;73.10;;;;;;5043177;28;20417;-67
2021/07/12 11:57:04;;;;;;;1.30;1.30;;;28.30;74.10;;;;;;5051955;28;20435;-68
2021/07/12 11:59:35;;;;;;;1.60;1.50;;;28.30;75.00;;;;;;5052030;28;20802;-66
2021/07/12 12:02:08;;;;;;;1.63;1.53;;;28.20;74.40;;;;;;5050863;28;20409;-66
2021/07/12 12:04:46;;;;;;;1.17;1.17;;;28.10;75.00;;;;;;5053082;28;20413;-68
2021/07/12 12:07:31;;;;;;;1.57;1.47;;;28.00;74.10;;;;;;5046978;28;20403;-67
2021/07/12 12:10:00;;;;;;;1.57;1.47;;;27.90;75.70;;;;;;5051938;28;20471;-67
2021/07/12 12:12:32;;;;;;;1.30;1.20;;;27.70;76.30;;;;;;5048738;28;20836;-68
2021/07/12 12:15:01;;;;;;;1.37;1.33;;;27.90;75.50;;;;;;5047510;28;20555;-66
2021/07/12 12:17:27;;;;;;;1.60;1.50;;;27.90;75.70;;;;;;5046230;28;20439;-68
2021/07/12 12:20:11;;;;;;;1.40;1.30;;;27.90;76.50;;;;;;5048170;28;20433;-68
2021/07/12 12:22:37;;;;;;;2.30;1.60;;;27.90;76.40;;;;;;5039247;28;20811;-67
2021/07/12 12:25:06;;;;;;;1.80;1.70;;;28.00;77.40;;;;;;5051314;28;20382;-68
2021/07/12 12:27:32;;;;;;;1.40;1.30;;;28.20;76.30;;;;;;5048980;28;20443;-68
2021/07/12 12:29:58;;;;;;;1.53;1.43;;;28.30;75.20;;;;;;5048856;28;21345;-67
2021/07/12 12:32:32;;;;;;;1.00;1.00;;;28.40;75.10;;;;;;5047567;28;20459;-66
2021/07/12 12:35:05;;;;;;;1.40;1.30;;;28.40;74.70;;;;;;5046271;28;20861;-67
2021/07/12 12:37:40;;;;;;;1.77;1.63;;;28.50;75.50;;;;;;5048781;28;20414;-67
2021/07/12 12:40:22;;;;;;;1.33;1.23;;;28.50;75.30;;;;;;5044781;28;20546;-67
2021/07/12 12:42:51;;;;;;;1.57;1.47;;;28.50;75.70;;;;;;5033492;28;20909;-68
2021/07/12 12:45:28;;;;;;;1.90;1.80;;;28.40;74.50;;;;;;5037313;28;20754;-69
2021/07/12 12:47:56;;;;;;;1.30;1.30;;;28.20;75.30;;;;;;5051604;28;20961;-66
2021/07/12 12:50:22;;;;;;;1.53;1.43;;;28.20;75.10;;;;;;5041738;28;20448;-68
2021/07/12 12:52:47;;;;;;;1.77;1.67;;;28.30;77.10;;;;;;5039142;28;20462;-67
2021/07/12 12:55:15;;;;;;;1.93;1.83;;;28.40;77.20;;;;;;5048196;28;20852;-68
2021/07/12 12:57:43;;;;;;;1.57;1.47;;;28.40;77.10;;;;;;5046852;28;20208;-66
2021/07/12 13:00:11;;;;;;;1.70;1.60;;;28.30;77.90;;;;;;5038431;28;20465;-67
2021/07/12 13:02:45;;;;;;;1.67;1.57;;;28.20;78.00;;;;;;5048957;28;20405;-67